This is the latest recevied weather packets stored in our database for station/object OE6ACM-14. If no packets are shown the sender has not sent any weather packets the latest 1 day(s).
| Time | Temp. | Humidity | Pressure | Rain* | Wind** | Luminosity | Snow |
|---|---|---|---|---|---|---|---|
| 1778075379 | 22.22° C | 34% | 918.5 hPa | - | - | - | - |
| 1778075079 | 22.78° C | 33% | 918.6 hPa | - | - | - | - |
| 1778074779 | 22.78° C | 34% | 918.6 hPa | - | - | - | - |
| 1778074479 | 22.22° C | 34% | 918.7 hPa | - | - | - | - |
| 1778074179 | 22.78° C | 33% | 918.6 hPa | - | - | - | - |
| 1778073279 | 21.67° C | 35% | 918.9 hPa | - | - | - | - |
| 1778072379 | 22.78° C | 33% | 918.9 hPa | - | - | - | - |
| 1778066401 | 26.67° C | 26% | 919.3 hPa | - | - | - | - |
| 1778065501 | 26.11° C | 26% | 919.3 hPa | - | - | - | - |
| 1778065201 | 25.56° C | 26% | 919.4 hPa | - | - | - | - |
| 1778064901 | 25° C | 28% | 919.5 hPa | - | - | - | - |
| 1778064301 | 25° C | 28% | 919.4 hPa | - | - | - | - |
| 1778062801 | 21.11° C | 29% | 919.7 hPa | - | - | - | - |
| 1778062501 | 21.67° C | 29% | 919.8 hPa | - | - | - | - |
| 1778061901 | 24.44° C | 27% | 919.8 hPa | - | - | - | - |
| 1778061602 | 22.22° C | 28% | 919.8 hPa | - | - | - | - |
| 1778060701 | 21.67° C | 26% | 920 hPa | - | - | - | - |
| 1778060401 | 22.78° C | 26% | 919.8 hPa | - | - | - | - |
| 1778060101 | 25° C | 24% | 919.7 hPa | - | - | - | - |
| 1778059801 | 26.67° C | 22% | 919.7 hPa | - | - | - | - |
| 1778059501 | 28.33° C | 21% | 919.7 hPa | - | - | - | - |
| 1778059201 | 26.67° C | 25% | 919.7 hPa | - | - | - | - |
| 1778058901 | 27.22° C | 23% | 919.8 hPa | - | - | - | - |
| 1778058601 | 29.44° C | 23% | 919.7 hPa | - | - | - | - |
| 1778058301 | 29.44° C | 24% | 919.7 hPa | - | - | - | - |
* Rain since midnight (hover to see other rain measurements)
** Current wind speed in m/s (hover to see current wind gust speed)